Sunday, May 27, 2018, 5:56 PM GMT
Back to Local

CWWE, Western Head, N. S.

Location: , , Canada Lat: 43.983
Local Time: 5:56 PM GMT (17:56 GMT) Lon: -64.667
Time Zone: GMT Elev: 29 ft

Show me the last for .
Show Coded

Time T Td Feel RH Dir Speed Gust Alt SLP Vis Weather Sky Remarks
2018-05-27 17:00 53 42 - 65 100° 5 - - 30.34 0 None
2018-05-27 16:00 53 45 - 74 100° 3 - - 30.34 0 None
2018-05-27 15:00 52 43 - 70 80° 7 - - 30.32 0 None
2018-05-27 14:00 51 42 - 70 80° 10 - - 30.31 0 None
2018-05-27 13:00 48 40 44 73 70° 12 - - 30.30 0 None
2018-05-27 12:00 48 40 44 73 60° 9 - - 30.29 0 None
2018-05-27 11:00 46 40 42 79 60° 7 - - 30.27 0 None
2018-05-27 10:00 42 39 40 88 20° 5 - - 30.24 0 None
2018-05-27 09:00 42 38 38 86 30° 6 - - 30.22 0 None
2018-05-27 08:00 42 39 40 86 20° 5 - - 30.19 0 None
2018-05-27 07:00 44 39 41 84 10° 5 - - 30.16 0 None
2018-05-27 06:00 45 39 41 80 30° 6 - - 30.14 0 None
2018-05-27 05:00 46 41 43 82 20° 5 - - 30.13 0 None
2018-05-27 04:00 46 41 44 81 10° 5 - - 30.10 0 None
2018-05-27 03:00 46 41 43 81 50° 6 - - 30.08 0 None
2018-05-27 02:00 47 44 44 89 50° 6 - - 30.04 0 None
2018-05-27 01:00 49 46 46 91 60° 6 - - 30.00 0 None
2018-05-27 00:00 48 46 - 93 20° 2 - - 29.94 0 None
2018-05-26 23:00 50 46 49 86 40° 3 - - 29.89 0 Pressure rising rapidly
2018-05-26 22:00 54 48 - 79 60° 7 - - 29.83 0 Pressure rising rapidly
2018-05-26 21:00 60 49 - 68 40° 5 - - 29.77 0 None
2018-05-26 20:00 71 58 76 61 340° 12 18 - 29.72 0 Peak wind: 19 mph (17 kts) from 320° at 32 min
2018-05-26 19:00 77 60 79 55 310° 12 18 - 29.67 0 Peak wind: 21 mph (19 kts) from 310° at 43 min
2018-05-26 18:00 60 50 - 70 200° 5 - - 29.65 0 None

Support USWX by starting your Amazon purchase here.